createdAt,value
2018-04-17T00:00:12.630Z,37.88
2018-04-17T00:02:52.624Z,38.03
2018-04-17T00:05:30.703Z,37.84
2018-04-17T00:08:08.404Z,37.92
2018-04-17T00:10:47.646Z,37.83
2018-04-17T00:13:26.401Z,37.83
2018-04-17T00:16:04.256Z,37.98
2018-04-17T00:18:43.236Z,37.88
2018-04-17T00:21:22.074Z,37.97
2018-04-17T00:23:59.732Z,38.11
2018-04-17T00:26:38.062Z,37.79
2018-04-17T00:29:17.991Z,37.88
2018-04-17T00:31:56.076Z,37.78
2018-04-17T00:34:35.428Z,37.42
2018-04-17T00:37:13.254Z,37.30
2018-04-17T00:39:51.818Z,37.61
2018-04-17T00:42:30.891Z,37.71
2018-04-17T00:45:09.913Z,37.28
2018-04-17T00:47:47.932Z,37.37
2018-04-17T00:50:27.329Z,37.83
2018-04-17T00:53:14.197Z,36.25
2018-04-17T00:55:52.503Z,36.77
2018-04-17T00:58:31.535Z,37.74
2018-04-17T01:01:10.097Z,38.10
2018-04-17T01:03:48.161Z,38.07
2018-04-17T01:06:26.239Z,37.91
2018-04-17T01:09:08.523Z,36.60
2018-04-17T01:11:46.554Z,36.54
2018-04-17T01:14:24.905Z,36.95
2018-04-17T01:17:02.737Z,37.05
2018-04-17T01:19:40.410Z,37.16
2018-04-17T01:22:19.713Z,36.46
2018-04-17T01:24:57.531Z,36.53
2018-04-17T01:27:36.559Z,36.72
2018-04-17T01:30:14.641Z,36.10
2018-04-17T01:32:53.388Z,36.18
2018-04-17T01:35:32.080Z,35.85
2018-04-17T01:38:10.361Z,35.66
2018-04-17T01:40:48.948Z,35.05
2018-04-17T01:43:26.788Z,35.34
2018-04-17T01:46:05.674Z,36.14
2018-04-17T01:48:43.681Z,36.36
2018-04-17T01:51:21.624Z,36.49
2018-04-17T01:54:01.680Z,36.40
2018-04-17T01:56:39.575Z,36.08
2018-04-17T01:59:17.768Z,36.52
2018-04-17T02:01:57.263Z,35.78
2018-04-17T02:04:35.359Z,36.05
2018-04-17T02:07:14.542Z,36.22
2018-04-17T02:09:54.022Z,35.84
2018-04-17T02:12:33.108Z,35.37
2018-04-17T02:15:12.079Z,34.61
2018-04-17T02:17:50.860Z,35.82
2018-04-17T02:20:30.142Z,35.83
2018-04-17T02:23:08.622Z,35.66
2018-04-17T02:25:49.113Z,35.52
2018-04-17T02:28:28.145Z,35.47
2018-04-17T02:31:06.361Z,35.74
2018-04-17T02:33:46.485Z,35.65
2018-04-17T02:36:25.176Z,35.37
2018-04-17T02:39:03.181Z,35.16
2018-04-17T02:41:41.215Z,34.44
2018-04-17T02:44:19.998Z,35.01
2018-04-17T02:46:58.945Z,35.09
2018-04-17T02:49:36.968Z,35.13
2018-04-17T02:52:15.542Z,35.21
2018-04-17T02:54:54.629Z,35.02
2018-04-17T02:57:33.009Z,35.11
2018-04-17T03:00:10.805Z,34.64
2018-04-17T03:02:51.664Z,35.26
2018-04-17T03:05:29.942Z,35.13
2018-04-17T03:08:07.998Z,35.44
2018-04-17T03:10:47.173Z,35.30
2018-04-17T03:13:25.441Z,35.23
2018-04-17T03:16:04.465Z,35.56
2018-04-17T03:18:42.779Z,35.71
2018-04-17T03:21:20.876Z,35.98
2018-04-17T03:23:59.713Z,35.06
2018-04-17T03:26:38.087Z,35.50
2018-04-17T03:29:17.666Z,35.32
2018-04-17T03:31:55.800Z,35.11
2018-04-17T03:34:36.665Z,35.26
2018-04-17T03:37:14.547Z,35.42
2018-04-17T03:39:53.695Z,35.51
2018-04-17T03:42:34.559Z,35.07
2018-04-17T03:45:13.459Z,35.11
2018-04-17T03:47:52.419Z,35.33
2018-04-17T03:50:30.994Z,35.35
2018-04-17T03:53:08.883Z,35.43
2018-04-17T03:55:47.207Z,35.45
2018-04-17T03:58:25.409Z,35.54
2018-04-17T04:01:03.691Z,35.69
2018-04-17T04:03:41.743Z,35.38
2018-04-17T04:06:21.655Z,35.05
2018-04-17T04:08:59.980Z,35.22
2018-04-17T04:11:42.816Z,35.43
2018-04-17T04:14:21.566Z,35.78
2018-04-17T04:18:18.275Z,35.84
2018-04-17T04:22:15.320Z,35.83
2018-04-17T04:25:16.969Z,35.98
2018-04-17T04:27:56.762Z,36.00
2018-04-17T04:30:44.570Z,35.66
2018-04-17T04:33:22.711Z,35.77
2018-04-17T04:36:03.257Z,35.74
2018-04-17T04:38:43.597Z,35.89
2018-04-17T04:41:23.708Z,36.26
2018-04-17T04:44:02.564Z,36.08
2018-04-17T04:46:46.211Z,35.11
2018-04-17T04:49:24.955Z,35.74
2018-04-17T04:52:03.945Z,34.67
2018-04-17T04:54:46.606Z,35.01
2018-04-17T04:57:24.518Z,35.88
2018-04-17T05:00:05.148Z,35.47
2018-04-17T05:02:46.104Z,36.24
2018-04-17T05:05:25.106Z,35.00
2018-04-17T05:08:07.207Z,35.52
2018-04-17T05:10:45.134Z,35.11
2018-04-17T05:13:25.983Z,35.58
2018-04-17T05:16:06.265Z,36.39
2018-04-17T05:18:43.997Z,36.33
2018-04-17T05:21:23.260Z,36.66
2018-04-17T05:24:01.184Z,36.61
2018-04-17T05:26:39.450Z,36.01
2018-04-17T05:29:17.167Z,36.67
2018-04-17T05:31:54.934Z,37.03
2018-04-17T05:34:32.574Z,37.15
2018-04-17T05:37:12.510Z,37.26
2018-04-17T05:39:51.445Z,37.03
2018-04-17T05:42:29.931Z,37.05
2018-04-17T05:45:09.964Z,37.57
2018-04-17T05:47:49.398Z,37.05
2018-04-17T05:50:28.531Z,37.70
2018-04-17T05:53:09.409Z,37.64
2018-04-17T05:55:47.094Z,37.74
2018-04-17T05:58:25.023Z,37.05
2018-04-17T06:01:04.124Z,36.79
2018-04-17T06:03:41.800Z,37.99
2018-04-17T06:06:19.423Z,37.83
2018-04-17T06:08:59.055Z,37.03
2018-04-17T06:11:36.728Z,36.83
2018-04-17T06:14:14.221Z,38.01
2018-04-17T06:16:54.718Z,37.50
2018-04-17T06:19:34.991Z,38.26
2018-04-17T06:22:14.057Z,37.99
2018-04-17T06:24:55.500Z,37.75
2018-04-17T06:27:36.629Z,38.31
2018-04-17T06:30:16.755Z,38.22
2018-04-17T06:32:55.228Z,38.24
2018-04-17T06:35:37.834Z,37.99
2018-04-17T06:38:16.105Z,38.11
2018-04-17T06:41:00.797Z,38.12
2018-04-17T06:43:39.402Z,37.96
2018-04-17T06:46:17.102Z,38.65
2018-04-17T06:48:57.485Z,38.16
2018-04-17T06:51:36.615Z,38.62
2018-04-17T06:54:15.895Z,38.90
2018-04-17T06:56:56.455Z,38.93
2018-04-17T06:59:35.723Z,39.18
2018-04-17T07:02:14.713Z,39.00
2018-04-17T07:04:54.101Z,39.19
2018-04-17T07:07:31.792Z,38.97
2018-04-17T07:13:00.330Z,39.30
2018-04-17T07:15:40.260Z,39.45
2018-04-17T07:18:22.224Z,39.17
2018-04-17T07:21:02.045Z,39.30
2018-04-17T07:23:43.945Z,39.68
2018-04-17T07:26:23.454Z,39.35
2018-04-17T07:29:04.696Z,39.21
2018-04-17T07:31:47.686Z,39.82
2018-04-17T07:34:25.516Z,39.92
2018-04-17T07:37:05.198Z,39.67
2018-04-17T07:39:43.563Z,40.25
2018-04-17T07:42:23.022Z,40.06
2018-04-17T07:45:03.360Z,40.15
2018-04-17T07:47:50.283Z,39.69
2018-04-17T07:50:29.062Z,39.87
2018-04-17T07:53:07.918Z,40.41
2018-04-17T07:55:47.827Z,39.94
2018-04-17T07:58:25.670Z,40.34
2018-04-17T08:01:05.493Z,40.22
2018-04-17T08:03:48.763Z,39.45
2018-04-17T08:06:26.215Z,39.49
2018-04-17T08:09:06.217Z,39.15
2018-04-17T08:11:46.916Z,40.22
2018-04-17T08:14:26.031Z,36.56
2018-04-17T08:17:07.196Z,37.64
2018-04-17T08:19:48.058Z,39.46
2018-04-17T08:22:27.264Z,38.37
2018-04-17T08:25:10.237Z,37.37
2018-04-17T08:27:51.042Z,38.31
2018-04-17T08:30:29.068Z,38.67
2018-04-17T08:33:09.879Z,38.89
2018-04-17T08:35:50.365Z,38.92
2018-04-17T08:38:31.326Z,38.88
2018-04-17T08:41:12.050Z,37.92
2018-04-17T08:43:50.689Z,40.29
2018-04-17T08:46:33.944Z,39.71
2018-04-17T08:49:11.868Z,40.15
2018-04-17T08:51:51.421Z,38.91
2018-04-17T08:54:32.742Z,39.70
2018-04-17T08:57:12.673Z,40.23
2018-04-17T08:59:53.564Z,41.11
2018-04-17T09:02:32.939Z,40.83
2018-04-17T09:05:13.060Z,40.98
2018-04-17T09:07:58.108Z,40.49
2018-04-17T09:10:35.806Z,39.74
2018-04-17T09:13:18.220Z,37.42
2018-04-17T09:15:57.005Z,39.50
2018-04-17T09:21:22.592Z,41.04
2018-04-17T09:24:00.363Z,39.40
2018-04-17T09:26:41.006Z,40.45
2018-04-17T09:29:18.955Z,40.87
2018-04-17T09:32:02.546Z,41.02
2018-04-17T09:34:41.480Z,41.72
2018-04-17T09:37:19.518Z,42.72
2018-04-17T09:40:00.767Z,42.81
2018-04-17T09:42:39.177Z,41.79
2018-04-17T09:45:24.383Z,40.75
2018-04-17T09:48:03.226Z,39.85
2018-04-17T09:50:42.966Z,40.06
2018-04-17T09:53:23.744Z,38.93
2018-04-17T09:56:01.735Z,40.25
2018-04-17T09:58:40.624Z,40.06
2018-04-17T10:01:24.109Z,40.17
2018-04-17T10:04:05.294Z,40.02
2018-04-17T10:06:43.554Z,41.35
2018-04-17T10:09:25.790Z,41.48
2018-04-17T10:12:04.736Z,40.43
2018-04-17T10:14:44.366Z,39.84
2018-04-17T10:17:26.832Z,41.56
2018-04-17T10:20:05.131Z,42.75
2018-04-17T10:22:46.135Z,42.83
2018-04-17T10:25:24.850Z,44.37
2018-04-17T10:28:09.648Z,43.94
2018-04-17T10:30:47.397Z,44.04
2018-04-17T10:33:25.302Z,43.13
2018-04-17T10:36:08.244Z,42.91
2018-04-17T10:38:46.000Z,42.68
2018-04-17T10:41:24.663Z,41.35
2018-04-17T10:44:09.850Z,43.35
2018-04-17T10:46:48.545Z,44.29
2018-04-17T10:49:28.368Z,43.80
2018-04-17T10:52:09.358Z,41.61
2018-04-17T10:54:49.153Z,40.59
2018-04-17T10:57:33.340Z,41.35
2018-04-17T11:00:11.540Z,41.08
2018-04-17T11:02:52.667Z,42.41
2018-04-17T11:05:32.527Z,42.35
2018-04-17T11:08:10.524Z,41.48
2018-04-17T11:10:52.755Z,43.25
2018-04-17T11:13:32.988Z,43.62
2018-04-17T11:16:11.274Z,43.63
2018-04-17T11:18:54.108Z,43.93
2018-04-17T11:21:35.327Z,44.21
2018-04-17T11:24:16.381Z,42.74
2018-04-17T11:26:54.419Z,43.09
2018-04-17T11:29:35.929Z,43.50
2018-04-17T11:32:15.162Z,43.09
2018-04-17T11:34:53.147Z,42.08
2018-04-17T11:37:35.489Z,42.78
2018-04-17T11:40:14.344Z,41.73
2018-04-17T11:42:54.780Z,42.53
2018-04-17T11:45:38.705Z,43.36
2018-04-17T11:48:20.747Z,43.77
2018-04-17T11:50:59.032Z,44.04
2018-04-17T11:53:39.678Z,44.17
2018-04-17T11:56:17.545Z,43.48
2018-04-17T11:59:05.084Z,41.51
2018-04-17T12:01:51.044Z,42.28
2018-04-17T12:04:37.299Z,42.64
2018-04-17T12:07:18.352Z,43.70
2018-04-17T12:09:59.509Z,43.94
2018-04-17T12:12:39.769Z,44.70
2018-04-17T12:15:20.562Z,43.33
2018-04-17T12:17:59.483Z,43.52
2018-04-17T12:20:41.884Z,44.21
2018-04-17T12:23:20.548Z,42.56
2018-04-17T12:26:00.105Z,42.01
2018-04-17T12:28:42.681Z,43.55
2018-04-17T12:31:21.927Z,43.64
2018-04-17T12:34:00.901Z,43.70
2018-04-17T12:36:44.032Z,43.02
2018-04-17T12:39:22.590Z,43.37
2018-04-17T12:42:09.454Z,43.29
2018-04-17T12:44:59.071Z,43.48
2018-04-17T12:47:40.527Z,43.73
2018-04-17T12:50:22.051Z,45.23
2018-04-17T12:53:09.444Z,44.38
2018-04-17T12:55:48.275Z,45.84
2018-04-17T12:58:26.291Z,45.88
2018-04-17T13:01:08.669Z,44.21
2018-04-17T13:04:00.996Z,45.71
2018-04-17T13:06:50.098Z,45.78
2018-04-17T13:09:28.290Z,44.44
2018-04-17T13:12:08.436Z,45.99
2018-04-17T13:14:49.332Z,46.10
2018-04-17T13:17:28.361Z,45.15
2018-04-17T13:20:12.752Z,45.81
2018-04-17T13:22:54.075Z,44.88
2018-04-17T13:25:47.430Z,43.97
2018-04-17T13:28:26.967Z,44.86
2018-04-17T13:31:06.256Z,43.78
2018-04-17T13:33:54.116Z,44.90
2018-04-17T13:36:32.342Z,45.90
2018-04-17T13:39:12.009Z,43.55
2018-04-17T13:41:56.711Z,44.23
2018-04-17T13:44:47.696Z,45.17
2018-04-17T13:47:29.331Z,45.42
2018-04-17T13:50:11.090Z,45.32
2018-04-17T13:52:49.910Z,45.11
2018-04-17T13:55:29.768Z,45.95
2018-04-17T13:58:17.206Z,45.63
2018-04-17T14:00:54.927Z,45.33
2018-04-17T14:03:37.700Z,45.27
2018-04-17T14:06:16.121Z,45.99
2018-04-17T14:08:56.401Z,44.05
2018-04-17T14:11:34.237Z,44.14
2018-04-17T14:14:13.095Z,45.66
2018-04-17T14:16:56.643Z,45.78
2018-04-17T14:19:36.015Z,46.03
2018-04-17T14:22:14.310Z,46.32
2018-04-17T14:25:04.512Z,46.30
2018-04-17T14:27:53.931Z,46.30
2018-04-17T14:30:35.376Z,46.43
2018-04-17T14:33:15.378Z,46.04
2018-04-17T14:35:54.969Z,45.78
2018-04-17T14:38:35.172Z,45.73
2018-04-17T15:26:54.123Z,46.46
2018-04-17T15:29:32.053Z,46.05
2018-04-17T15:32:16.083Z,45.70
2018-04-17T15:34:56.359Z,46.12
2018-04-17T15:37:34.087Z,46.64
2018-04-17T15:40:16.125Z,45.41
2018-04-17T15:42:55.914Z,46.01
2018-04-17T15:45:42.107Z,45.53
2018-04-17T15:48:23.269Z,45.41
2018-04-17T15:51:02.796Z,46.02
2018-04-17T15:53:45.751Z,46.27
2018-04-17T15:56:23.611Z,45.74
2018-04-17T15:59:02.978Z,45.88
2018-04-17T16:01:48.501Z,46.08
2018-04-17T16:04:26.276Z,45.00
2018-04-17T16:07:04.550Z,45.93
2018-04-17T16:09:47.615Z,45.80
2018-04-17T16:12:27.441Z,45.10
2018-04-17T16:15:07.393Z,45.87
2018-04-17T16:17:47.248Z,45.15
2018-04-17T16:20:26.890Z,45.58
2018-04-17T16:23:09.291Z,45.86
2018-04-17T16:25:47.570Z,44.88
2018-04-17T16:28:26.757Z,44.91
2018-04-17T16:31:09.731Z,44.39
2018-04-17T16:33:48.510Z,45.97
2018-04-17T16:36:27.750Z,47.39
2018-04-17T16:39:07.106Z,47.77
2018-04-17T16:41:48.127Z,48.12
2018-04-17T16:44:28.595Z,47.73
2018-04-17T16:47:08.793Z,48.02
2018-04-17T16:49:48.340Z,47.29
2018-04-17T16:52:30.520Z,47.10
2018-04-17T16:55:10.759Z,46.89
2018-04-17T16:57:48.749Z,47.15
2018-04-17T17:00:28.446Z,47.03
2018-04-17T17:03:07.448Z,46.43
2018-04-17T17:05:46.765Z,45.74
2018-04-17T17:08:28.622Z,46.91
2018-04-17T17:11:08.612Z,46.36
2018-04-17T17:13:49.474Z,46.64
2018-04-17T17:16:30.580Z,46.08
2018-04-17T17:19:09.882Z,45.41
2018-04-17T17:21:50.847Z,45.32
2018-04-17T17:24:30.686Z,44.94
2018-04-17T17:27:13.239Z,44.89
2018-04-17T17:29:54.467Z,44.77
2018-04-17T17:32:35.883Z,44.07
2018-04-17T17:35:15.652Z,43.69
2018-04-17T17:37:55.283Z,43.72
2018-04-17T17:40:38.006Z,43.05
2018-04-17T17:43:18.005Z,43.56
2018-04-17T17:45:56.003Z,42.21
2018-04-17T17:48:38.890Z,42.13
2018-04-17T17:51:18.850Z,42.80
2018-04-17T17:53:58.373Z,42.83
2018-04-17T17:56:40.081Z,42.63
2018-04-17T17:59:18.097Z,43.01
2018-04-17T18:01:59.816Z,42.56
2018-04-17T18:04:38.744Z,42.67
2018-04-17T18:07:19.076Z,42.75
2018-04-17T18:10:00.562Z,42.83
2018-04-17T18:12:39.688Z,42.21
2018-04-17T18:15:22.212Z,41.85
2018-04-17T18:18:00.524Z,41.65
2018-04-17T18:20:40.424Z,41.63
2018-04-17T18:23:23.585Z,41.48
2018-04-17T18:26:01.541Z,41.41
2018-04-17T18:28:42.087Z,41.48
2018-04-17T18:31:23.258Z,40.21
2018-04-17T18:34:02.296Z,39.64
2018-04-17T18:36:43.904Z,40.23
2018-04-17T18:39:21.970Z,40.45
2018-04-17T18:42:00.607Z,39.94
2018-04-17T18:44:43.014Z,40.58
2018-04-17T18:47:22.682Z,40.77
2018-04-17T18:50:05.826Z,40.83
2018-04-17T18:52:44.553Z,39.38
2018-04-17T18:55:23.432Z,39.21
2018-04-17T18:58:04.675Z,40.19
2018-04-17T19:00:44.282Z,40.68
2018-04-17T19:03:22.064Z,40.45
2018-04-17T19:06:05.210Z,38.84
2018-04-17T19:08:45.342Z,39.04
2018-04-17T19:11:25.656Z,39.84
2018-04-17T19:14:04.722Z,39.24
2018-04-17T19:16:42.849Z,39.96
2018-04-17T19:19:20.854Z,39.77
2018-04-17T19:22:01.809Z,40.21
2018-04-17T19:24:40.673Z,40.28
2018-04-17T19:27:18.732Z,39.51
2018-04-17T19:30:01.359Z,39.70
2018-04-17T19:32:40.711Z,39.89
2018-04-17T19:35:20.230Z,39.56
2018-04-17T19:37:59.342Z,39.41
2018-04-17T19:40:37.913Z,39.63
2018-04-17T19:43:17.569Z,39.45
2018-04-17T19:45:56.045Z,39.39
2018-04-17T19:48:37.041Z,39.30
2018-04-17T19:51:14.840Z,39.44
2018-04-17T19:53:55.843Z,39.21
2018-04-17T19:56:34.600Z,39.23
2018-04-17T19:59:13.628Z,38.94
2018-04-17T20:01:54.533Z,38.59
2018-04-17T20:04:33.703Z,38.65
2018-04-17T20:07:12.480Z,38.64
2018-04-17T20:09:52.069Z,38.55
2018-04-17T20:12:31.315Z,38.53
2018-04-17T20:15:09.823Z,38.63
2018-04-17T20:17:48.923Z,38.55
2018-04-17T20:20:26.800Z,38.95
2018-04-17T20:23:05.861Z,38.51
2018-04-17T20:25:44.773Z,38.15
2018-04-17T20:28:23.272Z,38.11
2018-04-17T20:31:02.593Z,38.12
2018-04-17T20:33:41.811Z,37.51
2018-04-17T20:36:20.261Z,38.16
2018-04-17T20:38:59.278Z,38.34
2018-04-17T20:41:39.812Z,38.36
2018-04-17T20:44:18.210Z,38.32
2018-04-17T20:46:56.162Z,38.22
2018-04-17T20:49:36.427Z,38.36
2018-04-17T20:52:15.300Z,38.11
2018-04-17T20:54:54.331Z,37.99
2018-04-17T20:57:34.736Z,37.26
2018-04-17T21:00:15.106Z,37.68
2018-04-17T21:02:54.323Z,36.86
2018-04-17T21:05:33.090Z,37.18
2018-04-17T21:08:12.427Z,37.43
2018-04-17T21:10:51.276Z,37.32
2018-04-17T21:13:29.874Z,37.13
2018-04-17T21:16:08.307Z,36.72
2018-04-17T21:18:46.440Z,37.17
2018-04-17T21:21:26.602Z,37.44
2018-04-17T21:24:04.893Z,37.53
2018-04-17T21:26:43.115Z,37.54
2018-04-17T21:29:22.921Z,37.14
2018-04-17T21:32:00.854Z,37.03
2018-04-17T21:34:39.282Z,36.82
2018-04-17T21:37:17.801Z,36.62
2018-04-17T21:39:56.234Z,36.83
2018-04-17T21:42:34.542Z,37.06
2018-04-17T21:45:14.351Z,37.10
2018-04-17T21:47:53.858Z,37.10
2018-04-17T21:50:32.903Z,37.15
2018-04-17T21:53:11.526Z,37.23
2018-04-17T21:55:50.323Z,36.79
2018-04-17T21:58:28.506Z,36.46
2018-04-17T22:01:11.926Z,36.42
2018-04-17T22:03:50.759Z,36.29
2018-04-17T22:06:29.779Z,36.76
2018-04-17T22:09:12.597Z,36.89
2018-04-17T22:11:51.735Z,36.61
2018-04-17T22:14:30.777Z,36.64
2018-04-17T22:17:12.522Z,36.53
2018-04-17T22:19:51.465Z,36.74
2018-04-17T22:22:29.345Z,36.48
2018-04-17T22:25:13.573Z,36.48
2018-04-17T22:27:51.608Z,36.27
2018-04-17T22:30:29.788Z,36.10
2018-04-17T22:33:14.584Z,36.33
2018-04-17T22:35:53.466Z,36.15
2018-04-17T22:38:32.428Z,36.22
2018-04-17T22:41:14.262Z,36.42
2018-04-17T22:43:52.791Z,36.41
2018-04-17T22:46:32.908Z,36.35
2018-04-17T22:49:12.396Z,36.58
2018-04-17T22:51:51.067Z,36.19
2018-04-17T22:54:31.786Z,36.01
2018-04-17T22:57:11.543Z,36.07
2018-04-17T22:59:50.693Z,36.23
2018-04-17T23:02:29.893Z,36.03
2018-04-17T23:05:08.609Z,34.89
2018-04-17T23:07:48.781Z,35.28
2018-04-17T23:10:30.246Z,35.53
2018-04-17T23:13:09.205Z,-141.58
2018-04-17T23:15:48.804Z,-141.58
2018-04-17T23:18:27.656Z,-141.58
2018-04-17T23:21:11.524Z,-141.58
2018-04-17T23:23:50.328Z,-141.58
2018-04-17T23:26:37.074Z,-141.58
2018-04-17T23:29:16.786Z,-141.58
2018-04-17T23:31:56.011Z,-141.58
2018-04-17T23:34:37.228Z,-141.58
2018-04-17T23:37:16.787Z,-141.58
2018-04-17T23:40:00.344Z,-141.58
2018-04-17T23:42:39.366Z,-141.58
2018-04-17T23:45:17.634Z,-141.58
2018-04-17T23:47:56.327Z,-141.58
2018-04-17T23:50:35.220Z,-141.58
2018-04-17T23:53:14.669Z,-141.58
2018-04-17T23:55:53.029Z,34.69
2018-04-17T23:58:32.360Z,34.85
